M I D A S
Marine Information and Data Acquisition System
Tripno 1126 of the Zeeleeuw from 2006-06-07 04:01:00 to 2006-06-07 13:57:39
Back to CruiseResearch ActivitiesStationsMapUnderway DataData graphs

EquipmentUnitsComment
TimeDGPSUTC
LatitudeDGPSDM.mWGS84
LongitudeDGPSDM.mWGS84
HeadingGyrodeg 
SOGDGPSknotsSpeed over ground
COGDGPSdegCourse over ground
DepthEcho soundermeters200 kHz
Missing or incorrect values are displayed as -999
Navigation data collected by the RV Zeeleeuw from 2006-06-07 04:00:49 to 2006-06-07 14:08:24
                                                                                    Next 1000 lines
Time Latitude Longitude Heading SOG COG Depth
2006-06-07 04:00:59 51°13.603 2°56.094 112.5 1.3 288 4.6
2006-06-07 04:01:04 51°13.604 2°56.09 113.1 1.8 293 4.7
2006-06-07 04:01:09 51°13.605 2°56.085 113.7 2.1 291 -999
2006-06-07 04:01:15 51°13.607 2°56.079 114.2 2.5 294 -999
2006-06-07 04:01:19 51°13.608 2°56.074 114.6 2.8 293 -999
2006-06-07 04:01:25 51°13.611 2°56.066 114.8 3.1 296 -999
2006-06-07 04:01:30 51°13.613 2°56.059 114.9 3.4 293 -999
2006-06-07 04:01:35 51°13.615 2°56.052 114.6 3.7 295 -999
2006-06-07 04:01:39 51°13.617 2°56.045 113.9 3.9 293 -999
2006-06-07 04:01:45 51°13.619 2°56.036 112.5 3.9 292 -999
2006-06-07 04:01:50 51°13.621 2°56.028 111.1 3.9 290 -999
2006-06-07 04:01:55 51°13.622 2°56.019 110.1 3.9 290 -999
2006-06-07 04:02:00 51°13.624 2°56.011 109.5 4 288 -999
2006-06-07 04:02:05 51°13.626 2°56.003 109.3 4 288 -999
2006-06-07 04:02:10 51°13.627 2°55.994 109.4 4.1 287 -999
2006-06-07 04:02:15 51°13.63 2°55.985 110.1 4.3 289 -999
2006-06-07 04:02:20 51°13.632 2°55.976 111.2 4.4 288 -999
2006-06-07 04:02:25 51°13.634 2°55.966 112.5 4.6 289 -999
2006-06-07 04:02:29 51°13.636 2°55.958 113.2 4.8 290 -999
2006-06-07 04:02:35 51°13.638 2°55.945 113.9 5 291 -999
2006-06-07 04:02:40 51°13.641 2°55.935 114.9 5.1 292 -999
2006-06-07 04:02:45 51°13.644 2°55.924 115.9 5.3 292 -999
2006-06-07 04:02:50 51°13.647 2°55.913 116.8 5.4 293 -999
2006-06-07 04:02:55 51°13.65 2°55.902 117.7 5.5 294 -999
2006-06-07 04:03:00 51°13.653 2°55.89 118.6 5.6 295 -999
2006-06-07 04:03:05 51°13.657 2°55.879 119.4 5.6 296 -999
2006-06-07 04:03:10 51°13.66 2°55.868 120.2 5.7 297 -999
2006-06-07 04:03:15 51°13.664 2°55.857 120.4 5.6 297 -999
2006-06-07 04:03:20 51°13.668 2°55.846 120.4 5.6 297 -999
2006-06-07 04:03:25 51°13.671 2°55.836 120.3 5.5 298 -999
2006-06-07 04:03:30 51°13.674 2°55.826 120 5.1 297 -999
2006-06-07 04:03:35 51°13.677 2°55.816 119.5 4.9 298 -999
2006-06-07 04:03:40 51°13.68 2°55.807 118.9 4.7 297 -999
2006-06-07 04:03:45 51°13.683 2°55.798 117.9 4.5 297 9.1
2006-06-07 04:03:49 51°13.685 2°55.791 117 4.4 295 4.9
2006-06-07 04:03:55 51°13.687 2°55.781 116 4.4 294 9.7
2006-06-07 04:04:00 51°13.69 2°55.773 114.5 4.2 294 4.7
2006-06-07 04:04:05 51°13.692 2°55.765 112.5 4 293 -999
2006-06-07 04:04:10 51°13.694 2°55.757 111 3.8 292 -999
2006-06-07 04:04:15 51°13.696 2°55.75 109.5 3.6 291 -999
2006-06-07 04:04:20 51°13.698 2°55.743 108.4 3.5 290 -999
2006-06-07 04:04:25 51°13.699 2°55.737 107.3 3 289 -999
2006-06-07 04:04:29 51°13.7 2°55.733 105.5 2.6 289 11.1
2006-06-07 04:04:35 51°13.701 2°55.728 103.7 1.9 287 11.7
2006-06-07 04:04:39 51°13.701 2°55.727 100.7 1.4 291 12.2
2006-06-07 04:04:43 51°13.701 2°55.725 96.8 0.6 299 12.5
2006-06-07 04:04:49 51°13.702 2°55.725 92.1 0.4 326 12.5
2006-06-07 04:04:53 51°13.702 2°55.726 86.3 0.6 49 12.3
2006-06-07 04:04:58 51°13.703 2°55.728 80.1 1 53 11.6
2006-06-07 04:05:02 51°13.704 2°55.73 73.3 1.5 55 11.2
2006-06-07 04:05:09 51°13.706 2°55.734 66.2 1.7 54 11
2006-06-07 04:05:14 51°13.708 2°55.738 59.1 2 49 10.9
2006-06-07 04:05:19 51°13.71 2°55.741 51.9 2.2 43 11
2006-06-07 04:05:25 51°13.713 2°55.744 45.6 2 37 11.1
2006-06-07 04:05:28 51°13.714 2°55.746 42.4 1.7 36 11
2006-06-07 04:05:33 51°13.715 2°55.747 39.1 1.2 36 11.3
2006-06-07 04:05:39 51°13.716 2°55.748 35.9 0.7 30 11
2006-06-07 04:05:43 51°13.716 2°55.748 32.7 0.1 70 11.1
2006-06-07 04:05:49 51°13.715 2°55.748 31.1 0.3 203 11
2006-06-07 04:05:54 51°13.713 2°55.746 29.5 1.1 205 11
2006-06-07 04:05:59 51°13.712 2°55.745 28.6 1.4 205 11.1
2006-06-07 04:06:05 51°13.71 2°55.743 27.5 1.5 205 -999
2006-06-07 04:06:09 51°13.709 2°55.742 27.1 1.3 205 -999
2006-06-07 04:06:15 51°13.707 2°55.741 26.9 1 208 -999
2006-06-07 04:06:20 51°13.706 2°55.74 26.1 0.7 202 -999
2006-06-07 04:06:25 51°13.706 2°55.74 24 0.3 226 -999
2006-06-07 04:06:29 51°13.707 2°55.74 20.9 0.2 350 -999
2006-06-07 04:06:35 51°13.708 2°55.741 16.1 0.9 4 -999
2006-06-07 04:06:40 51°13.711 2°55.741 9.7 1.5 3 -999
2006-06-07 04:06:45 51°13.714 2°55.74 2.4 2 355 -999
2006-06-07 04:06:50 51°13.717 2°55.739 356.3 2.4 350 4.7
2006-06-07 04:06:55 51°13.721 2°55.737 347.2 2.9 343 -999
2006-06-07 04:07:00 51°13.725 2°55.734 342.1 3.2 337 -999
2006-06-07 04:07:05 51°13.73 2°55.73 337.4 3.7 336 10.2
2006-06-07 04:07:09 51°13.734 2°55.726 335.7 4 333 9.7
2006-06-07 04:07:13 51°13.739 2°55.722 333.8 4.4 332 9.3
2006-06-07 04:07:19 51°13.746 2°55.716 333 4.7 330 9.1
2006-06-07 04:07:23 51°13.75 2°55.712 332.7 5.1 330 9
2006-06-07 04:07:29 51°13.758 2°55.704 332.7 5.5 330 8.8
2006-06-07 04:07:34 51°13.766 2°55.697 332.6 6.1 330 9.1
2006-06-07 04:07:39 51°13.774 2°55.689 332.4 6.5 329 9.2
2006-06-07 04:07:45 51°13.784 2°55.68 332.3 7.2 330 9.3
2006-06-07 04:07:49 51°13.791 2°55.673 333.1 7.6 330 9.4
2006-06-07 04:07:53 51°13.799 2°55.666 332.9 8 329 9.4
2006-06-07 04:07:59 51°13.811 2°55.654 332.6 8.3 330 9.5
2006-06-07 04:08:03 51°13.82 2°55.647 333.7 8.7 332 9.5
2006-06-07 04:08:09 51°13.833 2°55.636 334 8.9 331 9.5
2006-06-07 04:08:14 51°13.844 2°55.627 335 9 331 9.5
2006-06-07 04:08:18 51°13.854 2°55.619 336.1 9.3 333 9.4
2006-06-07 04:08:25 51°13.87 2°55.605 336.2 9.5 332 9.5
2006-06-07 04:08:28 51°13.877 2°55.6 337.1 9.6 334 9.5
2006-06-07 04:08:33 51°13.889 2°55.591 337.6 9.7 334 9.7
2006-06-07 04:08:39 51°13.904 2°55.579 337.5 9.8 334 9.7
2006-06-07 04:08:43 51°13.914 2°55.572 338.9 9.9 336 9.7
2006-06-07 04:08:49 51°13.929 2°55.561 339.3 10 336 9.6
2006-06-07 04:08:53 51°13.939 2°55.553 338.7 10 334 9.7
2006-06-07 04:08:59 51°13.954 2°55.542 339.2 10.1 336 9.6
2006-06-07 04:09:03 51°13.965 2°55.535 339.6 10.1 336 9.6
2006-06-07 04:09:09 51°13.98 2°55.524 339.6 10.1 336 9.7
2006-06-07 04:09:13 51°13.991 2°55.517 340.5 10.2 338 9.8
2006-06-07 04:09:19 51°14.006 2°55.507 341.1 10 337 9.8
2006-06-07 04:09:23 51°14.016 2°55.501 341.1 9.7 338 9.7
2006-06-07 04:09:29 51°14.03 2°55.491 340.7 9.6 337 9.7
2006-06-07 04:09:35 51°14.045 2°55.481 340.3 9.3 338 9.7
2006-06-07 04:09:39 51°14.054 2°55.475 340.6 9.2 337 9.7
2006-06-07 04:09:43 51°14.063 2°55.468 340.6 9.1 337 9.8
2006-06-07 04:09:49 51°14.077 2°55.459 340.4 9 337 9.8
2006-06-07 04:09:53 51°14.086 2°55.453 340.1 8.9 336 9.7
2006-06-07 04:09:59 51°14.099 2°55.443 339.7 8.8 336 9.8
2006-06-07 04:10:03 51°14.108 2°55.437 339.3 8.7 336 9.8
2006-06-07 04:10:08 51°14.119 2°55.429 339 8.8 335 9.7
2006-06-07 04:10:13 51°14.13 2°55.42 338.4 8.9 334 9.7
2006-06-07 04:10:19 51°14.144 2°55.409 337.3 9.1 333 9.7
2006-06-07 04:10:23 51°14.153 2°55.401 335.9 9.3 332 9.7
2006-06-07 04:10:28 51°14.165 2°55.392 335.9 9.5 333 9.7
2006-06-07 04:10:33 51°14.176 2°55.382 336 9.6 331 9.7
2006-06-07 04:10:39 51°14.19 2°55.368 334.6 9.7 330 9.7
2006-06-07 04:10:43 51°14.199 2°55.359 331.9 9.8 326 9.7
2006-06-07 04:10:49 51°14.213 2°55.343 329.5 9.9 325 9.7
2006-06-07 04:10:55 51°14.226 2°55.326 327.1 10 321 9.7
2006-06-07 04:10:58 51°14.232 2°55.318 325 10 320 9.7
2006-06-07 04:11:03 51°14.242 2°55.303 322.3 10.1 318 9.7
2006-06-07 04:11:09 51°14.254 2°55.284 320.1 10.2 316 9.7
2006-06-07 04:11:13 51°14.262 2°55.271 318.8 10.3 314 9.7
2006-06-07 04:11:19 51°14.274 2°55.25 317.7 10.4 313 9.7
2006-06-07 04:11:23 51°14.282 2°55.236 316.2 10.6 311 9.7
2006-06-07 04:11:29 51°14.293 2°55.214 314.4 10.7 310 9.7
2006-06-07 04:11:33 51°14.301 2°55.199 312.8 10.8 309 9.6
2006-06-07 04:11:39 51°14.312 2°55.177 312 10.8 308 9.6
2006-06-07 04:11:43 51°14.319 2°55.161 310.9 10.9 307 9.6
2006-06-07 04:11:49 51°14.33 2°55.138 310 10.9 307 9.5
2006-06-07 04:11:55 51°14.341 2°55.115 309.3 11.1 306 9.6
2006-06-07 04:11:59 51°14.349 2°55.101 310.6 11.2 310 9.6
2006-06-07 04:12:03 51°14.358 2°55.086 314.2 11.4 313 9.5
2006-06-07 04:12:09 51°14.371 2°55.064 316.4 11.4 314 9.6
2006-06-07 04:12:13 51°14.38 2°55.05 318.2 11.7 315 9.8
2006-06-07 04:12:19 51°14.394 2°55.028 319 11.8 315 9.5
2006-06-07 04:12:24 51°14.406 2°55.008 319 12.1 315 9.4
2006-06-07 04:12:28 51°14.416 2°54.993 318.9 12.2 314 9.5
2006-06-07 04:12:33 51°14.427 2°54.973 318.6 12.4 313 9.3
2006-06-07 04:12:39 51°14.442 2°54.948 318.4 12.5 313 9.5
2006-06-07 04:12:43 51°14.451 2°54.931 317.9 12.7 312 9.2
2006-06-07 04:12:48 51°14.463 2°54.91 317.9 12.8 311 8.8
2006-06-07 04:12:54 51°14.477 2°54.884 317.4 12.9 310 8.9
2006-06-07 04:12:59 51°14.489 2°54.863 317.7 12.8 312 8.6
2006-06-07 04:13:03 51°14.498 2°54.846 318.2 12.8 311 8.6
2006-06-07 04:13:09 51°14.512 2°54.82 318.1 12.9 311 8.6
2006-06-07 04:13:13 51°14.521 2°54.803 317.6 12.9 311 8.5
2006-06-07 04:13:19 51°14.536 2°54.777 317.8 13 311 8.5
2006-06-07 04:13:23 51°14.545 2°54.76 318.4 12.9 312 8.4
2006-06-07 04:13:29 51°14.56 2°54.735 319 12.9 312 8.5
2006-06-07 04:13:33 51°14.57 2°54.719 320.2 12.9 314 8.7
2006-06-07 04:13:39 51°14.585 2°54.694 321 12.9 314 8.5
2006-06-07 04:13:43 51°14.595 2°54.678 321.9 12.9 315 8.4
2006-06-07 04:13:48 51°14.608 2°54.657 322.2 13 315 8.4
2006-06-07 04:13:53 51°14.621 2°54.637 322.1 13 314 8.5
2006-06-07 04:13:59 51°14.635 2°54.612 321.6 13 314 8.4
2006-06-07 04:14:05 51°14.65 2°54.586 320.8 12.9 312 8.4
2006-06-07 04:14:08 51°14.657 2°54.573 319.3 13 310 8.5
2006-06-07 04:14:13 51°14.668 2°54.55 317.4 13 309 8.4
2006-06-07 04:14:19 51°14.681 2°54.523 316 13.1 308 8.5
2006-06-07 04:14:24 51°14.691 2°54.501 315 13.1 307 8.5
2006-06-07 04:14:29 51°14.702 2°54.478 314.3 13 307 8.4
2006-06-07 04:14:33 51°14.711 2°54.459 314.1 13.1 307 8.5
2006-06-07 04:14:39 51°14.724 2°54.432 314.1 13.1 307 8.5
2006-06-07 04:14:45 51°14.738 2°54.404 314.3 13.1 308 8.6
2006-06-07 04:14:49 51°14.747 2°54.386 314.9 13 308 8.4
2006-06-07 04:14:54 51°14.759 2°54.365 316.4 13 312 8.4
2006-06-07 04:14:59 51°14.771 2°54.344 318.6 13 313 8.4
2006-06-07 04:15:05 51°14.786 2°54.319 320.5 12.9 314 8.3
2006-06-07 04:15:09 51°14.796 2°54.303 321.5 12.9 314 8.2
2006-06-07 04:15:13 51°14.807 2°54.287 322.4 12.8 316 8.3
2006-06-07 04:15:19 51°14.822 2°54.264 323.3 12.8 316 8.3
2006-06-07 04:15:24 51°14.835 2°54.243 323.6 12.9 316 8.2
2006-06-07 04:15:29 51°14.848 2°54.224 323.7 12.8 316 8.2
2006-06-07 04:15:33 51°14.858 2°54.207 323.5 12.8 315 8.1
2006-06-07 04:15:39 51°14.873 2°54.183 323.1 12.8 315 8.4
2006-06-07 04:15:43 51°14.883 2°54.167 322.8 12.8 314 8.1
2006-06-07 04:15:48 51°14.895 2°54.147 322.2 12.8 315 8
2006-06-07 04:15:53 51°14.908 2°54.126 322.5 12.8 315 8
2006-06-07 04:15:59 51°14.923 2°54.103 322.7 12.8 316 8
2006-06-07 04:16:04 51°14.936 2°54.084 322.9 12.7 316 7.9
2006-06-07 04:16:09 51°14.949 2°54.064 323.2 12.7 317 8
2006-06-07 04:16:15 51°14.964 2°54.041 323.6 12.7 317 7.9
2006-06-07 04:16:19 51°14.974 2°54.026 323.8 12.7 317 7.8
2006-06-07 04:16:24 51°14.987 2°54.007 324.3 12.7 317 8
2006-06-07 04:16:29 51°15 2°53.987 323.7 12.7 316 8
2006-06-07 04:16:33 51°15.009 2°53.97 322.2 12.8 313 7.9
2006-06-07 04:16:39 51°15.023 2°53.944 320.3 12.8 311 7.8
2006-06-07 04:16:43 51°15.032 2°53.926 317.4 12.8 308 8
2006-06-07 04:16:48 51°15.042 2°53.904 315.1 12.9 305 8
2006-06-07 04:16:53 51°15.052 2°53.879 312.2 13 304 8.4
2006-06-07 04:16:59 51°15.064 2°53.85 310.6 13.1 302 8.3
2006-06-07 04:17:03 51°15.072 2°53.831 309.8 13.1 303 8.4
2006-06-07 04:17:09 51°15.084 2°53.802 310.4 13.2 304 8.5
2006-06-07 04:17:14 51°15.095 2°53.779 311.9 13.1 306 8.2
2006-06-07 04:17:19 51°15.107 2°53.756 314.2 13.1 309 8.6
2006-06-07 04:17:25 51°15.121 2°53.731 316.9 12.9 311 8.3
2006-06-07 04:17:28 51°15.128 2°53.718 319.2 12.9 313 8.6
2006-06-07 04:17:33 51°15.14 2°53.697 320.6 13 312 8.5
2006-06-07 04:17:39 51°15.155 2°53.672 321.4 13 313 8.5
2006-06-07 04:17:43 51°15.165 2°53.654 321 13 311 8.5
2006-06-07 04:17:48 51°15.176 2°53.632 319.6 13 310 8.7
2006-06-07 04:17:53 51°15.188 2°53.61 318.1 13.1 309 8.7
2006-06-07 04:17:59 51°15.2 2°53.582 316.3 13.2 307 8.7
2006-06-07 04:18:03 51°15.209 2°53.562 313.6 13.1 304 8.7
2006-06-07 04:18:09 51°15.221 2°53.533 312.3 13.2 303 8.9
2006-06-07 04:18:14 51°15.23 2°53.508 310 13.2 300 8.8
2006-06-07 04:18:19 51°15.239 2°53.482 308.5 13.2 300 8.8
2006-06-07 04:18:25 51°15.249 2°53.451 307.1 13.4 298 9
2006-06-07 04:18:29 51°15.256 2°53.43 306 13.4 298 9
2006-06-07 04:18:33 51°15.263 2°53.409 305.4 13.4 297 9
2006-06-07 04:18:39 51°15.272 2°53.377 304.6 13.4 296 9
2006-06-07 04:18:43 51°15.279 2°53.356 304.4 13.4 297 9.1
2006-06-07 04:18:49 51°15.289 2°53.325 304.3 13.4 297 9.1
2006-06-07 04:18:53 51°15.296 2°53.304 304.7 13.4 298 9.2
2006-06-07 04:18:59 51°15.307 2°53.273 305.2 13.4 298 9.2
2006-06-07 04:19:05 51°15.318 2°53.242 306.2 13.4 300 9.3
2006-06-07 04:19:09 51°15.326 2°53.222 307.7 13.3 300 9.2
2006-06-07 04:19:13 51°15.334 2°53.202 309.2 13.3 303 9.3
2006-06-07 04:19:19 51°15.346 2°53.173 310.7 13.3 303 9.3
2006-06-07 04:19:24 51°15.356 2°53.148 311.5 13.2 303 9.4
2006-06-07 04:19:28 51°15.363 2°53.128 310.6 13.3 300 9.4
2006-06-07 04:19:35 51°15.374 2°53.09 307 13.3 295 9.5
2006-06-07 04:19:39 51°15.379 2°53.069 303.1 13.3 293 9.4
2006-06-07 04:19:44 51°15.384 2°53.04 298.3 13.4 287 9.5
2006-06-07 04:19:49 51°15.389 2°53.012 293.2 13.4 284 9.5
2006-06-07 04:19:55 51°15.392 2°52.976 289.4 13.5 280 9.6
2006-06-07 04:19:59 51°15.395 2°52.953 286.6 13.6 279 9.6
2006-06-07 04:20:04 51°15.397 2°52.923 284.7 13.6 278 9.6
2006-06-07 04:20:09 51°15.399 2°52.893 282.9 13.7 276 9.7
2006-06-07 04:20:15 51°15.4 2°52.856 281.4 13.7 274 9.8
2006-06-07 04:20:19 51°15.401 2°52.832 280.1 13.7 273 9.8
2006-06-07 04:20:24 51°15.402 2°52.802 278.8 13.7 273 9.9
2006-06-07 04:20:28 51°15.403 2°52.777 278.5 13.8 272 10
2006-06-07 04:20:35 51°15.404 2°52.734 277.8 13.8 272 10
2006-06-07 04:20:39 51°15.404 2°52.71 277.6 13.8 272 10
2006-06-07 04:20:43 51°15.405 2°52.686 277.2 13.8 272 10
2006-06-07 04:20:49 51°15.406 2°52.649 277.4 13.8 272 10.1
2006-06-07 04:20:53 51°15.406 2°52.625 278.1 13.8 273 10.1
2006-06-07 04:21:00 51°15.409 2°52.582 279.1 13.8 274 10.1
2006-06-07 04:21:05 51°15.411 2°52.552 280.5 13.8 276 10.2
2006-06-07 04:21:09 51°15.413 2°52.528 282.2 13.8 277 10.3
2006-06-07 04:21:13 51°15.415 2°52.504 282.5 13.8 277 10.3
2006-06-07 04:21:19 51°15.418 2°52.468 283 13.7 277 10.4
2006-06-07 04:21:23 51°15.42 2°52.444 283.2 13.7 277 10.4
2006-06-07 04:21:29 51°15.422 2°52.407 283 13.8 277 10.4
2006-06-07 04:21:33 51°15.424 2°52.383 282.3 13.8 276 10.6
2006-06-07 04:21:39 51°15.426 2°52.347 281.7 13.7 276 10.6
2006-06-07 04:21:45 51°15.428 2°52.311 281 13.8 275 10.6
2006-06-07 04:21:49 51°15.429 2°52.286 280.5 13.8 275 10.6
2006-06-07 04:21:53 51°15.43 2°52.262 280.1 13.8 274 10.7
2006-06-07 04:21:59 51°15.432 2°52.226 279.4 13.8 274 10.8
2006-06-07 04:22:03 51°15.433 2°52.201 279.4 13.8 276 10.8
2006-06-07 04:22:09 51°15.436 2°52.165 280.5 13.8 276 10.9
2006-06-07 04:22:15 51°15.439 2°52.129 281.9 13.8 277 11
2006-06-07 04:22:19 51°15.441 2°52.105 283.1 13.7 278 11
2006-06-07 04:22:24 51°15.444 2°52.075 284.4 13.7 279 11
2006-06-07 04:22:29 51°15.447 2°52.045 284.8 13.7 279 11
2006-06-07 04:22:33 51°15.45 2°52.021 285.3 13.7 280 11.1
2006-06-07 04:22:39 51°15.454 2°51.985 285.8 13.7 280 11.1
2006-06-07 04:22:43 51°15.456 2°51.961 285.9 13.7 280 11.2
2006-06-07 04:22:49 51°15.46 2°51.926 285.9 13.7 280 11.2
2006-06-07 04:22:53 51°15.463 2°51.902 286 13.7 280 11.2
2006-06-07 04:22:59 51°15.467 2°51.866 285.7 13.8 280 11.2
2006-06-07 04:23:03 51°15.469 2°51.842 285.6 13.7 279 11.2
2006-06-07 04:23:08 51°15.472 2°51.811 285.2 13.7 279 11.4
2006-06-07 04:23:13 51°15.475 2°51.782 285 13.8 279 11.4
2006-06-07 04:23:18 51°15.478 2°51.752 284.8 13.7 279 11.3
2006-06-07 04:23:23 51°15.48 2°51.722 284.6 13.7 278 11.4
2006-06-07 04:23:29 51°15.483 2°51.686 284 13.7 278 11.4
2006-06-07 04:23:34 51°15.485 2°51.655 283.1 13.7 277 11.5
2006-06-07 04:23:39 51°15.487 2°51.625 282.5 13.7 276 11.5
2006-06-07 04:23:45 51°15.49 2°51.589 282.2 13.7 276 11.7
2006-06-07 04:23:49 51°15.491 2°51.565 282.1 13.7 277 11.5
2006-06-07 04:23:54 51°15.494 2°51.535 281.7 13.7 276 11.6
2006-06-07 04:23:59 51°15.496 2°51.505 281.9 13.7 276 11.7
2006-06-07 04:24:05 51°15.499 2°51.469 282.8 13.7 278 11.7
2006-06-07 04:24:09 51°15.502 2°51.445 284.3 13.7 279 11.6
2006-06-07 04:24:15 51°15.506 2°51.41 285.7 13.7 280 11.7
2006-06-07 04:24:19 51°15.508 2°51.386 286.5 13.6 281 11.6
2006-06-07 04:24:23 51°15.511 2°51.362 287.3 13.6 281 11.7
2006-06-07 04:24:28 51°15.515 2°51.332 287.6 13.6 281 11.8
2006-06-07 04:24:33 51°15.519 2°51.303 288 13.6 281 11.7
2006-06-07 04:24:39 51°15.524 2°51.267 288.1 13.6 282 11.8
2006-06-07 04:24:44 51°15.528 2°51.238 288.1 13.7 281 11.8
2006-06-07 04:24:49 51°15.531 2°51.208 287.8 13.7 281 11.8
2006-06-07 04:24:55 51°15.535 2°51.172 287.1 13.7 281 11.8
2006-06-07 04:24:59 51°15.538 2°51.148 286.5 13.7 280 11.8
2006-06-07 04:25:03 51°15.541 2°51.124 286.2 13.7 280 11.9
2006-06-07 04:25:09 51°15.545 2°51.088 286.2 13.7 280 11.9
2006-06-07 04:25:15 51°15.548 2°51.052 285.9 13.8 279 11.8
2006-06-07 04:25:19 51°15.551 2°51.028 285.5 13.7 279 11.8
2006-06-07 04:25:25 51°15.555 2°50.993 285.6 13.8 279 11.9
2006-06-07 04:25:29 51°15.558 2°50.969 286 13.8 280 11.8
2006-06-07 04:25:33 51°15.56 2°50.945 286.4 13.7 281 11.9
2006-06-07 04:25:39 51°15.565 2°50.909 286.8 13.8 281 11.9
2006-06-07 04:25:43 51°15.567 2°50.885 287 13.8 281 11.9
2006-06-07 04:25:49 51°15.571 2°50.849 287 13.8 280 11.9
2006-06-07 04:25:53 51°15.574 2°50.825 287 13.8 280 11.9
2006-06-07 04:25:59 51°15.578 2°50.789 286.8 13.8 280 11.9
2006-06-07 04:26:03 51°15.581 2°50.765 286.6 13.8 280 11.9
2006-06-07 04:26:08 51°15.584 2°50.735 286.6 13.8 280 11.9
2006-06-07 04:26:13 51°15.588 2°50.705 286.9 13.8 281 11.8
2006-06-07 04:26:19 51°15.592 2°50.669 287 13.8 280 11.9
2006-06-07 04:26:23 51°15.595 2°50.645 287.3 13.8 281 11.8
2006-06-07 04:26:29 51°15.6 2°50.609 287.4 13.8 281 11.9
2006-06-07 04:26:34 51°15.603 2°50.579 287.4 13.7 281 11.8
2006-06-07 04:26:39 51°15.606 2°50.549 287.2 13.8 281 11.9
2006-06-07 04:26:44 51°15.61 2°50.519 286.9 13.8 280 12
2006-06-07 04:26:49 51°15.613 2°50.489 286.5 13.8 280 11.9
2006-06-07 04:26:53 51°15.616 2°50.465 286.2 13.8 280 11.9
2006-06-07 04:26:59 51°15.619 2°50.429 285.7 13.8 279 12
2006-06-07 04:27:03 51°15.622 2°50.405 285.7 13.8 280 12
2006-06-07 04:27:08 51°15.625 2°50.375 285.9 13.8 280 12
2006-06-07 04:27:13 51°15.629 2°50.345 286.1 13.8 280 12
2006-06-07 04:27:19 51°15.633 2°50.309 286.4 13.8 281 12
2006-06-07 04:27:24 51°15.636 2°50.279 287.1 13.8 281 12
2006-06-07 04:27:29 51°15.641 2°50.25 287.6 13.8 282 12
2006-06-07 04:27:33 51°15.643 2°50.226 288 13.8 281 12.1
2006-06-07 04:27:39 51°15.648 2°50.19 287.8 13.7 282 12.2
2006-06-07 04:27:45 51°15.652 2°50.154 287.5 13.8 280 12.1
2006-06-07 04:27:49 51°15.655 2°50.131 287 13.7 281 12.1
2006-06-07 04:27:54 51°15.658 2°50.101 286.6 13.7 280 12.1
2006-06-07 04:27:59 51°15.661 2°50.071 286.3 13.7 280 12.2
2006-06-07 04:28:03 51°15.664 2°50.047 285.9 13.6 280 12.2
2006-06-07 04:28:09 51°15.667 2°50.012 285.4 13.6 279 12.2
2006-06-07 04:28:13 51°15.67 2°49.988 285.2 13.6 279 12.1
2006-06-07 04:28:19 51°15.673 2°49.952 284.6 13.6 278 12.1
2006-06-07 04:28:25 51°15.676 2°49.917 284.5 13.5 279 12.1
2006-06-07 04:28:29 51°15.679 2°49.893 284.6 13.5 279 12
2006-06-07 04:28:35 51°15.683 2°49.858 284.8 13.5 280 12
2006-06-07 04:28:39 51°15.685 2°49.835 285.9 13.5 280 11.9
2006-06-07 04:28:43 51°15.688 2°49.811 286.3 13.5 281 11.9
2006-06-07 04:28:49 51°15.693 2°49.776 287.4 13.5 282 11.7
2006-06-07 04:28:53 51°15.696 2°49.753 287.4 13.5 282 11.6
2006-06-07 04:28:59 51°15.7 2°49.718 288.1 13.4 282 11.5
2006-06-07 04:29:03 51°15.703 2°49.695 287.9 13.5 282 11.4
2006-06-07 04:29:09 51°15.708 2°49.66 288 13.5 281 11.2
2006-06-07 04:29:13 51°15.711 2°49.636 286.9 13.4 281 11
2006-06-07 04:29:19 51°15.714 2°49.601 286.6 13.4 280 10.9
2006-06-07 04:29:23 51°15.716 2°49.578 285.3 13.4 278 10.8
2006-06-07 04:29:29 51°15.72 2°49.543 284.6 13.4 279 10.8
2006-06-07 04:29:35 51°15.723 2°49.508 284.1 13.4 277 10.5
2006-06-07 04:29:39 51°15.725 2°49.484 283.7 13.3 278 10.4
2006-06-07 04:29:43 51°15.726 2°49.461 283.3 13.3 277 10.2
2006-06-07 04:29:49 51°15.73 2°49.426 283.6 13.4 278 10.2
2006-06-07 04:29:55 51°15.734 2°49.391 284.5 13.3 279 10
2006-06-07 04:29:59 51°15.736 2°49.368 285.3 13.3 281 10
2006-06-07 04:30:03 51°15.739 2°49.345 286.5 13.3 281 9.9
2006-06-07 04:30:08 51°15.743 2°49.316 287.3 13.3 282 9.9
2006-06-07 04:30:13 51°15.747 2°49.287 287.9 13.3 282 9.8
2006-06-07 04:30:18 51°15.751 2°49.259 288.3 13.3 282 9.7
2006-06-07 04:30:23 51°15.755 2°49.23 288.8 13.3 283 9.7
2006-06-07 04:30:29 51°15.76 2°49.196 289.1 13.3 283 9.7
2006-06-07 04:30:34 51°15.764 2°49.167 289.3 13.3 283 9.7
2006-06-07 04:30:39 51°15.768 2°49.138 289.1 13.3 283 9.8
2006-06-07 04:30:45 51°15.772 2°49.104 288.8 13.3 282 9.8
2006-06-07 04:30:49 51°15.775 2°49.081 288.5 13.3 282 9.8
2006-06-07 04:30:53 51°15.778 2°49.058 288 13.4 282 9.8
2006-06-07 04:30:59 51°15.782 2°49.023 287.5 13.4 281 9.9
2006-06-07 04:31:05 51°15.786 2°48.988 287 13.4 280 10
2006-06-07 04:31:09 51°15.789 2°48.964 286.4 13.4 280 10.1
2006-06-07 04:31:14 51°15.792 2°48.935 285.9 13.4 280 10.1
2006-06-07 04:31:19 51°15.794 2°48.905 285.2 13.5 278 10.2
2006-06-07 04:31:23 51°15.797 2°48.882 284.9 13.5 278 10.3
2006-06-07 04:31:29 51°15.8 2°48.846 284.2 13.5 278 10.4
2006-06-07 04:31:32 51°15.802 2°48.828 284.3 13.6 279 10.5
2006-06-07 04:31:39 51°15.806 2°48.787 285 13.5 280 10.6
2006-06-07 04:31:43 51°15.809 2°48.764 286.6 13.5 281 10.7
2006-06-07 04:31:49 51°15.814 2°48.729 287.9 13.6 282 10.8
2006-06-07 04:31:55 51°15.82 2°48.694 289.7 13.5 285 10.8
2006-06-07 04:31:59 51°15.823 2°48.671 290.4 13.5 284 11
2006-06-07 04:32:05 51°15.829 2°48.636 291.2 13.5 285 11
2006-06-07 04:32:09 51°15.833 2°48.613 291.7 13.5 285 11.1
2006-06-07 04:32:13 51°15.837 2°48.59 291.7 13.6 285 11.2
2006-06-07 04:32:19 51°15.842 2°48.555 291.4 13.5 284 11.3
2006-06-07 04:32:23 51°15.846 2°48.531 290.5 13.6 283 11.5
2006-06-07 04:32:28 51°15.85 2°48.502 289.9 13.6 282 11.5
2006-06-07 04:32:33 51°15.854 2°48.473 288.5 13.6 282 11.8
2006-06-07 04:32:39 51°15.858 2°48.437 288 13.7 281 11.9
2006-06-07 04:32:43 51°15.861 2°48.413 287.5 13.7 281 12.1
2006-06-07 04:32:49 51°15.865 2°48.377 287.2 13.7 281 12.3
2006-06-07 04:32:54 51°15.869 2°48.347 287.7 13.8 281 12.6
2006-06-07 04:32:59 51°15.873 2°48.318 288.2 13.7 282 12.8
2006-06-07 04:33:05 51°15.878 2°48.283 289.5 13.7 283 12.9
2006-06-07 04:33:09 51°15.882 2°48.259 289.8 13.7 284 13
2006-06-07 04:33:13 51°15.885 2°48.236 290.3 13.7 283 13.3
2006-06-07 04:33:19 51°15.891 2°48.2 290.7 13.7 284 13.4
2006-06-07 04:33:24 51°15.896 2°48.171 290.8 13.8 285 13.6
2006-06-07 04:33:29 51°15.9 2°48.141 291 13.8 284 13.7
2006-06-07 04:33:33 51°15.904 2°48.118 290.8 13.7 284 13.7
2006-06-07 04:33:39 51°15.909 2°48.082 290.6 13.8 284 13.8
2006-06-07 04:33:43 51°15.913 2°48.059 290.6 13.8 285 13.9
2006-06-07 04:33:49 51°15.919 2°48.023 291.2 13.8 285 13.9
2006-06-07 04:33:54 51°15.924 2°47.994 291.7 13.7 286 14.1
2006-06-07 04:33:59 51°15.93 2°47.965 292.6 13.8 286 14.4
2006-06-07 04:34:03 51°15.934 2°47.942 293.7 13.7 288 14.5
2006-06-07 04:34:08 51°15.941 2°47.913 294.8 13.7 289 14.5
2006-06-07 04:34:13 51°15.947 2°47.884 295.7 13.7 289 14.6
2006-06-07 04:34:19 51°15.954 2°47.85 296.1 13.7 289 14.6
2006-06-07 04:34:24 51°15.961 2°47.821 296.6 13.7 289 14.8
2006-06-07 04:34:29 51°15.967 2°47.793 296.6 13.7 290 14.8
2006-06-07 04:34:34 51°15.974 2°47.765 297 13.7 290 14.9
2006-06-07 04:34:39 51°15.98 2°47.736 296.9 13.7 290 14.9
2006-06-07 04:34:45 51°15.988 2°47.702 296.7 13.7 290 15
2006-06-07 04:34:49 51°15.993 2°47.679 296.4 13.7 289 15
2006-06-07 04:34:53 51°15.997 2°47.656 296 13.7 289 15.1
2006-06-07 04:34:59 51°16.005 2°47.621 295.6 13.7 288 15.1
2006-06-07 04:35:04 51°16.01 2°47.592 295.1 13.7 288 15.1
2006-06-07 04:35:09 51°16.016 2°47.563 294 13.8 287 15
2006-06-07 04:35:14 51°16.022 2°47.535 294.1 13.7 288 15.2
2006-06-07 04:35:19 51°16.028 2°47.506 293.5 13.7 287 15.3
2006-06-07 04:35:25 51°16.034 2°47.471 293.4 13.7 287 15.3
2006-06-07 04:35:29 51°16.038 2°47.448 293.1 13.6 286 15.3
2006-06-07 04:35:33 51°16.043 2°47.425 293.2 13.5 288 15.2
2006-06-07 04:35:39 51°16.05 2°47.391 293.8 13.4 287 15.3
2006-06-07 04:35:44 51°16.056 2°47.363 294.4 13.4 288 15.2
2006-06-07 04:35:49 51°16.062 2°47.335 295.7 13.4 289 15.4
2006-06-07 04:35:53 51°16.067 2°47.313 295.4 13.4 290 15.3
2006-06-07 04:35:59 51°16.075 2°47.28 296.2 13.4 289 15.1
2006-06-07 04:36:03 51°16.08 2°47.258 296.3 13.3 290 15
2006-06-07 04:36:08 51°16.086 2°47.23 296.1 13.4 289 15
2006-06-07 04:36:13 51°16.092 2°47.202 296.1 13.3 289 14.7
2006-06-07 04:36:19 51°16.099 2°47.169 295.6 13.3 289 14.5
2006-06-07 04:36:24 51°16.105 2°47.141 295.7 13.3 289 14.3
2006-06-07 04:36:29 51°16.111 2°47.113 296 13.3 289 14.1
2006-06-07 04:36:35 51°16.119 2°47.08 296.3 13.2 290 13.9
2006-06-07 04:36:39 51°16.124 2°47.058 296.1 13.3 290 13.9
2006-06-07 04:36:45 51°16.131 2°47.025 296.2 13.3 290 13.8
2006-06-07 04:36:49 51°16.136 2°47.003 296.3 13.2 289 13.6
2006-06-07 04:36:53 51°16.141 2°46.981 295.8 13.3 290 13.3
2006-06-07 04:36:59 51°16.148 2°46.947 295.5 13.2 288 13.3
2006-06-07 04:37:05 51°16.155 2°46.914 295.3 13.3 288 13.2
2006-06-07 04:37:09 51°16.159 2°46.892 294.4 13.3 288 12.9
2006-06-07 04:37:13 51°16.163 2°46.87 294 13.2 288 12.7
2006-06-07 04:37:19 51°16.17 2°46.836 294 13.2 288 11.4
2006-06-07 04:37:23 51°16.174 2°46.814 293.9 13.2 287 11.4
2006-06-07 04:37:28 51°16.18 2°46.786 294 13.1 288 11.5
2006-06-07 04:37:33 51°16.185 2°46.759 294.2 13.1 288 11.5
2006-06-07 04:37:39 51°16.192 2°46.725 294.3 13.1 288 11.5
2006-06-07 04:37:45 51°16.199 2°46.692 295.3 13.1 289 11.4
2006-06-07 04:37:48 51°16.203 2°46.676 295.5 13.1 289 11.2
2006-06-07 04:37:55 51°16.211 2°46.638 295.9 13.1 289 11.1
2006-06-07 04:37:59 51°16.216 2°46.616 296.1 13 290 11
2006-06-07 04:38:04 51°16.222 2°46.588 296.3 13.1 290 10.8
2006-06-07 04:38:09 51°16.228 2°46.561 296.1 13.1 290 10.5
2006-06-07 04:38:15 51°16.235 2°46.528 296.1 13 288 10.2
2006-06-07 04:38:19 51°16.24 2°46.507 295.7 13 289 9.8
2006-06-07 04:38:23 51°16.244 2°46.485 295 13 288 9.5
2006-06-07 04:38:29 51°16.251 2°46.452 294.6 13 287 9.5
2006-06-07 04:38:34 51°16.256 2°46.425 294.2 12.9 288 9.2
2006-06-07 04:38:39 51°16.261 2°46.397 293.7 12.9 286 9.1
2006-06-07 04:38:44 51°16.266 2°46.37 293 13 285 9.1
2006-06-07 04:38:49 51°16.271 2°46.342 292.5 13 286 9.3
2006-06-07 04:38:55 51°16.276 2°46.309 292.4 13 285 9.3
2006-06-07 04:38:59 51°16.28 2°46.287 292 13 285 9.3
2006-06-07 04:39:03 51°16.284 2°46.265 292 12.9 286 9.3
2006-06-07 04:39:08 51°16.289 2°46.237 291.9 12.9 285 9
2006-06-07 04:39:13 51°16.294 2°46.209 292.1 12.9 286 8.7
2006-06-07 04:39:19 51°16.3 2°46.177 293 12.9 287 8.7
2006-06-07 04:39:23 51°16.305 2°46.155 293.6 12.9 287 8.8
2006-06-07 04:39:29 51°16.312 2°46.123 295 12.8 289 8.8
2006-06-07 04:39:34 51°16.318 2°46.096 296 12.9 291 8.8
2006-06-07 04:39:39 51°16.325 2°46.07 297.5 12.9 291 8.9
2006-06-07 04:39:45 51°16.333 2°46.038 297.9 12.9 292 8.9
2006-06-07 04:39:49 51°16.338 2°46.017 298.3 12.9 292 9
2006-06-07 04:39:53 51°16.344 2°45.996 299.4 12.9 294 9
2006-06-07 04:39:59 51°16.353 2°45.965 300.4 12.9 294 9.1
2006-06-07 04:40:04 51°16.36 2°45.939 301.2 12.9 296 9.2
2006-06-07 04:40:09 51°16.368 2°45.913 301.9 12.9 295 9.2
2006-06-07 04:40:13 51°16.374 2°45.892 302.4 12.9 295 9.2
2006-06-07 04:40:19 51°16.383 2°45.861 302 12.9 295 9.3
2006-06-07 04:40:23 51°16.389 2°45.84 301.7 12.9 294 9.2
2006-06-07 04:40:29 51°16.398 2°45.808 301.2 12.9 294 9.4
2006-06-07 04:40:33 51°16.403 2°45.787 300.6 13 293 9.5
2006-06-07 04:40:39 51°16.412 2°45.756 300.3 12.9 293 9.8
2006-06-07 04:40:43 51°16.417 2°45.734 300.3 13 293 9.9
2006-06-07 04:40:49 51°16.426 2°45.703 300.5 13 293 10
2006-06-07 04:40:55 51°16.434 2°45.671 300.7 13 293 10
2006-06-07 04:40:59 51°16.44 2°45.65 300.6 13 293 9.9
2006-06-07 04:41:05 51°16.448 2°45.618 300.4 13 292 10
2006-06-07 04:41:09 51°16.454 2°45.597 300.3 13 293 10
2006-06-07 04:41:13 51°16.459 2°45.575 299.2 13 290 9.9
2006-06-07 04:41:19 51°16.467 2°45.543 298.8 13 291 10.1
2006-06-07 04:41:23 51°16.472 2°45.521 298.8 13 291 10.1
2006-06-07 04:41:29 51°16.479 2°45.489 298.8 13 291 10.2
2006-06-07 04:41:33 51°16.485 2°45.467 299 13 291 10.1
2006-06-07 04:41:39 51°16.493 2°45.435 299.3 13 292 10.2
2006-06-07 04:41:45 51°16.501 2°45.403 299.8 13 292 10.5
2006-06-07 04:41:49 51°16.506 2°45.382 300.4 13 293 10.4
2006-06-07 04:41:53 51°16.512 2°45.361 300.7 13.1 292 10.9
2006-06-07 04:42:00 51°16.522 2°45.324 300.8 13.1 293 10.9
2006-06-07 04:42:05 51°16.529 2°45.297 300.9 13.1 293 10.9
2006-06-07 04:42:09 51°16.534 2°45.276 301 13 293 11.2
2006-06-07 04:42:13 51°16.54 2°45.254 300.8 13.1 292 11.4
2006-06-07 04:42:19 51°16.548 2°45.222 300.2 13.1 292 11.2
2006-06-07 04:42:25 51°16.555 2°45.189 299.2 13.2 290 11.5
2006-06-07 04:42:29 51°16.56 2°45.167 298.6 13.2 290 11.8
2006-06-07 04:42:35 51°16.568 2°45.134 297.9 13.2 290 11.4
2006-06-07 04:42:39 51°16.573 2°45.112 297.9 13.2 290 11.3
2006-06-07 04:42:43 51°16.577 2°45.09 297.8 13.2 290 11
2006-06-07 04:42:48 51°16.584 2°45.063 297.9 13.2 290 11.4
2006-06-07 04:42:53 51°16.59 2°45.036 298.4 13.1 291 10.9
2006-06-07 04:42:59 51°16.598 2°45.004 299 13.1 292 11.1
2006-06-07 04:43:05 51°16.607 2°44.972 299.9 13 293 11
2006-06-07 04:43:08 51°16.611 2°44.956 301.5 13 294 10.7
2006-06-07 04:43:15 51°16.622 2°44.92 302.9 13 296 11.4
2006-06-07 04:43:19 51°16.629 2°44.9 304.1 13 297 10.5
2006-06-07 04:43:23 51°16.636 2°44.88 305.2 13 297 10.9
2006-06-07 04:43:29 51°16.646 2°44.849 305.3 13 297 11.2
2006-06-07 04:43:33 51°16.652 2°44.829 305.5 13 298 11.3
2006-06-07 04:43:39 51°16.662 2°44.798 305.5 13 297 11.5
2006-06-07 04:43:43 51°16.669 2°44.777 305.3 13.1 297 11.5
2006-06-07 04:43:49 51°16.679 2°44.746 305.3 13.1 297 11.8
2006-06-07 04:43:53 51°16.685 2°44.726 305.3 13.1 297 11.9
2006-06-07 04:43:59 51°16.695 2°44.695 304.8 13.1 297 12.3
2006-06-07 04:44:05 51°16.705 2°44.664 304.5 13.1 296 12.5
2006-06-07 04:44:09 51°16.711 2°44.643 304.5 13.1 297 12.3
2006-06-07 04:44:13 51°16.717 2°44.622 304.3 13.2 295 12.3
2006-06-07 04:44:19 51°16.727 2°44.59 303.9 13.1 296 12.5
2006-06-07 04:44:25 51°16.736 2°44.559 304 13.1 296 12.4
2006-06-07 04:44:29 51°16.743 2°44.538 303.9 13.1 296 12.5
2006-06-07 04:44:33 51°16.749 2°44.517 304.2 13.2 296 12.6
2006-06-07 04:44:39 51°16.759 2°44.485 304.3 13.2 296 13.1
2006-06-07 04:44:43 51°16.765 2°44.464 304.8 13.3 297 13.5
2006-06-07 04:44:48 51°16.774 2°44.438 305.3 13.3 297 13.8
2006-06-07 04:44:53 51°16.782 2°44.412 305.5 13.3 297 14
2006-06-07 04:44:59 51°16.792 2°44.38 305.5 13.3 296 14.1
2006-06-07 04:45:04 51°16.8 2°44.354 304.8 13.4 296 14.2
2006-06-07 04:45:09 51°16.807 2°44.327 304.2 13.4 295 14.1
2006-06-07 04:45:14 51°16.815 2°44.3 303.5 13.3 295 14.3
2006-06-07 04:45:19 51°16.823 2°44.273 303.4 13.4 295 14.4
2006-06-07 04:45:24 51°16.83 2°44.246 303.2 13.4 294 14.4
2006-06-07 04:45:29 51°16.838 2°44.219 302.9 13.4 294 14.5
2006-06-07 04:45:33 51°16.844 2°44.198 303.2 13.4 295 14.5
2006-06-07 04:45:39 51°16.854 2°44.165 303.3 13.4 295 14.6
2006-06-07 04:45:43 51°16.86 2°44.144 304.1 13.4 296 14.5
2006-06-07 04:45:49 51°16.87 2°44.112 304.6 13.4 296 14.7
2006-06-07 04:45:55 51°16.88 2°44.08 304.8 13.4 296 14.7
2006-06-07 04:45:59 51°16.886 2°44.058 305 13.4 296 14.7
2006-06-07 04:46:03 51°16.893 2°44.037 305 13.4 296 14.7
2006-06-07 04:46:09 51°16.903 2°44.005 305 13.5 296 14.8
2006-06-07 04:46:13 51°16.909 2°43.984 305.1 13.4 296 14.5
2006-06-07 04:46:19 51°16.919 2°43.952 304.9 13.4 296 14.5
2006-06-07 04:46:24 51°16.927 2°43.925 304.8 13.4 296 14.5
2006-06-07 04:46:28 51°16.933 2°43.904 304.7 13.4 296 14.6
2006-06-07 04:46:35 51°16.945 2°43.866 304.4 13.4 296 14.4
2006-06-07 04:46:39 51°16.952 2°43.845 304.8 13.4 297 14.2
2006-06-07 04:46:45 51°16.962 2°43.814 306.6 13.4 298 14.1
2006-06-07 04:46:49 51°16.97 2°43.794 307.6 13.3 300 14.2
2006-06-07 04:46:55 51°16.982 2°43.764 308.7 13.3 300 14.2
2006-06-07 04:46:59 51°16.99 2°43.744 309.6 13.3 301 14
2006-06-07 04:47:04 51°16.999 2°43.719 310.3 13.2 302 14
2006-06-07 04:47:09 51°17.008 2°43.694 310.5 13.3 301 13.8
2006-06-07 04:47:15 51°17.02 2°43.664 310.6 13.2 302 13.7
2006-06-07 04:47:19 51°17.027 2°43.644 310.9 13.2 302 13.8
2006-06-07 04:47:24 51°17.037 2°43.619 311 13.3 302 13.9
2006-06-07 04:47:28 51°17.045 2°43.599 310.8 13.3 302 14
2006-06-07 04:47:35 51°17.058 2°43.564 310.3 13.3 301 13.9
2006-06-07 04:47:39 51°17.066 2°43.544 310.2 13.3 301 13.8
2006-06-07 04:47:45 51°17.077 2°43.514 309.8 13.3 301 13.7
2006-06-07 04:47:49 51°17.085 2°43.494 309.5 13.3 301 14
2006-06-07 04:47:55 51°17.096 2°43.463 309.8 13.3 301 13.8
2006-06-07 04:48:00 51°17.105 2°43.438 309.8 13.3 301 13.7
2006-06-07 04:48:05 51°17.115 2°43.412 309.8 13.3 301 13.6
2006-06-07 04:48:09 51°17.123 2°43.392 309.8 13.3 301 13.5
2006-06-07 04:48:13 51°17.13 2°43.372 309.4 13.3 300 13.2
2006-06-07 04:48:20 51°17.143 2°43.336 309.2 13.3 300 12.7
2006-06-07 04:48:25 51°17.152 2°43.311 308.7 13.3 299 12.2
2006-06-07 04:48:29 51°17.16 2°43.291 308.4 13.2 299 11.3
2006-06-07 04:48:33 51°17.166 2°43.27 307.9 13.3 298 10.6
2006-06-07 04:48:40 51°17.179 2°43.235 307.8 13.2 299 12.6
2006-06-07 04:48:45 51°17.188 2°43.209 307.5 13.3 299 12.4
2006-06-07 04:48:49 51°17.195 2°43.188 307.7 13.3 299 11.6
2006-06-07 04:48:53 51°17.203 2°43.168 308.5 13.3 300 10.6
2006-06-07 04:48:59 51°17.214 2°43.138 309.2 13.2 301 10.1
2006-06-07 04:49:05 51°17.226 2°43.109 310 13.1 301 12.3
2006-06-07 04:49:09 51°17.233 2°43.089 310.6 13.1 302 12.3
2006-06-07 04:49:13 51°17.241 2°43.069 310.8 13.2 302 11.5
2006-06-07 04:49:18 51°17.251 2°43.045 310.9 13.2 303 10.9
2006-06-07 04:49:25 51°17.265 2°43.01 311 13.2 302 10
2006-06-07 04:49:29 51°17.273 2°42.99 310.6 13.1 302 10
2006-06-07 04:49:35 51°17.284 2°42.96 310.4 13.1 302 10.3
2006-06-07 04:49:39 51°17.292 2°42.941 310 13.1 302 9.8
2006-06-07 04:49:43 51°17.299 2°42.921 310.2 13 301 9.4
2006-06-07 04:49:49 51°17.311 2°42.893 310 13.1 302 9.1
2006-06-07 04:49:55 51°17.322 2°42.863 310 12.9 302 8.5
2006-06-07 04:49:59 51°17.33 2°42.844 310.5 12.8 304 7.4
2006-06-07 04:50:03 51°17.338 2°42.825 311.3 12.8 304 9.7
2006-06-07 04:50:09 51°17.351 2°42.798 312.8 12.8 306 10.7
2006-06-07 04:50:15 51°17.364 2°42.77 313.6 13.2 306 11
2006-06-07 04:50:20 51°17.375 2°42.746 314.5 13.3 308 10.9
2006-06-07 04:50:23 51°17.382 2°42.732 315 13.4 307 11.3
2006-06-07 04:50:29 51°17.395 2°42.704 315 13.3 307 11.6
2006-06-07 04:50:33 51°17.404 2°42.685 314.6 13.3 306 12.3
2006-06-07 04:50:39 51°17.417 2°42.656 313.9 13.3 305 13.3
2006-06-07 04:50:45 51°17.43 2°42.627 312.6 13.4 304 14.9
2006-06-07 04:50:49 51°17.438 2°42.606 311.3 13.5 303 16.8
2006-06-07 04:50:55 51°17.45 2°42.576 310.7 13.5 304 18.9
2006-06-07 04:51:00 51°17.46 2°42.551 310.5 13.5 303 19.9
2006-06-07 04:51:03 51°17.466 2°42.536 310.6 13.5 303 20.4
2006-06-07 04:51:09 51°17.478 2°42.507 310.6 13.5 303 20.7
2006-06-07 04:51:13 51°17.487 2°42.487 311.2 13.5 304 21.2
2006-06-07 04:51:19 51°17.5 2°42.458 311.5 13.5 304 21.4
2006-06-07 04:51:25 51°17.512 2°42.428 311.8 13.4 304 21.8
2006-06-07 04:51:29 51°17.521 2°42.409 312 13.5 304 22
2006-06-07 04:51:35 51°17.534 2°42.379 312.1 13.5 305 22.3
2006-06-07 04:51:38 51°17.54 2°42.365 312.5 13.4 305 22.4
2006-06-07 04:51:45 51°17.556 2°42.331 313.2 13.4 306 22.5
2006-06-07 04:51:49 51°17.564 2°42.312 313.8 13.5 306 22.7
2006-06-07 04:51:53 51°17.573 2°42.293 314.2 13.5 306 22.7
2006-06-07 04:51:59 51°17.586 2°42.265 314.4 13.4 306 22.8
2006-06-07 04:52:05 51°17.6 2°42.236 314.5 13.4 306 22.9
2006-06-07 04:52:09 51°17.608 2°42.217 314.2 13.4 306 23
2006-06-07 04:52:13 51°17.617 2°42.198 314.1 13.5 306 23
2006-06-07 04:52:19 51°17.63 2°42.168 313.5 13.4 305 23.3
2006-06-07 04:52:23 51°17.638 2°42.149 313.4 13.5 305 23.6
2006-06-07 04:52:28 51°17.649 2°42.125 313.4 13.5 305 23.4
2006-06-07 04:52:35 51°17.664 2°42.091 313.4 13.4 306 23.1
2006-06-07 04:52:39 51°17.673 2°42.072 313.5 13.4 306 23.2
2006-06-07 04:52:44 51°17.684 2°42.048 313.7 13.4 306 23.2
2006-06-07 04:52:49 51°17.695 2°42.024 313.7 13.5 305 23.5
2006-06-07 04:52:53 51°17.704 2°42.005 313.9 13.4 306 23.4
2006-06-07 04:52:59 51°17.717 2°41.976 314.2 13.4 305 23.4
2006-06-07 04:53:05 51°17.73 2°41.947 314 13.4 306 23.4
2006-06-07 04:53:09 51°17.739 2°41.928 314.1 13.4 306 23.4
2006-06-07 04:53:14 51°17.75 2°41.904 313.8 13.4 306 23.5
2006-06-07 04:53:19 51°17.76 2°41.88 313.7 13.5 305 23.5
2006-06-07 04:53:25 51°17.774 2°41.851 313.7 13.4 305 23.3
2006-06-07 04:53:29 51°17.782 2°41.832 313.5 13.4 305 23.3
2006-06-07 04:53:33 51°17.791 2°41.812 313.5 13.5 306 23.4
2006-06-07 04:53:39 51°17.804 2°41.783 313.8 13.5 306 23.5
2006-06-07 04:53:45 51°17.817 2°41.755 314.1 13.5 306 23.4
2006-06-07 04:53:49 51°17.826 2°41.736 314.3 13.5 306 23.4
2006-06-07 04:53:55 51°17.839 2°41.707 314.9 13.4 306 23.2
2006-06-07 04:53:59 51°17.848 2°41.688 315 13.4 307 23.2
2006-06-07 04:54:04 51°17.859 2°41.664 315.1 13.4 306 23.2
2006-06-07 04:54:09 51°17.87 2°41.641 315 13.4 306 23.1
2006-06-07 04:54:15 51°17.883 2°41.612 314.9 13.4 306 23.1
2006-06-07 04:54:19 51°17.892 2°41.593 314.7 13.3 307 22.8
2006-06-07 04:54:24 51°17.903 2°41.569 314.5 13.3 306 22.9
2006-06-07 04:54:28 51°17.912 2°41.55 314.2 13.4 306 22.7
2006-06-07 04:54:35 51°17.927 2°41.517 313.9 13.4 305 22.5
2006-06-07 04:54:39 51°17.936 2°41.498 313.8 13.4 306 22.6
2006-06-07 04:54:45 51°17.949 2°41.469 313.9 13.4 306 22.6
2006-06-07 04:54:49 51°17.958 2°41.45 313.9 13.4 306 22.5
2006-06-07 04:54:55 51°17.971 2°41.421 313.8 13.3 306 22.2
2006-06-07 04:54:59 51°17.979 2°41.402 314 13.3 306 21.7
2006-06-07 04:55:03 51°17.988 2°41.383 314.2 13.3 306 20.8
2006-06-07 04:55:09 51°18.001 2°41.354 314.2 13.3 306 21.5
2006-06-07 04:55:13 51°18.01 2°41.335 314.1 13.4 305 21.6
2006-06-07 04:55:19 51°18.023 2°41.307 314.1 13.3 306 21.7
2006-06-07 04:55:23 51°18.032 2°41.288 314 13.3 306 21.2
2006-06-07 04:55:29 51°18.044 2°41.259 314 13.3 306 21.4
2006-06-07 04:55:34 51°18.055 2°41.234 313.8 13.4 305 21.1
2006-06-07 04:55:39 51°18.066 2°41.211 313.9 13.3 306 20.9
2006-06-07 04:55:45 51°18.079 2°41.183 314 13.2 305 20.1
2006-06-07 04:55:49 51°18.088 2°41.164 313.8 13.3 305 20
2006-06-07 04:55:54 51°18.099 2°41.14 314 13.3 305 19
2006-06-07 04:55:59 51°18.11 2°41.116 314.2 13.3 305 19.3
2006-06-07 04:56:05 51°18.122 2°41.087 314.5 13.3 305 18.6
2006-06-07 04:56:09 51°18.131 2°41.068 314.5 13.3 305 18.6
2006-06-07 04:56:12 51°18.137 2°41.053 314.5 13.3 305 18.4
2006-06-07 04:56:19 51°18.152 2°41.02 314.5 13.3 305 18.1
2006-06-07 04:56:24 51°18.163 2°40.996 314.7 13.3 306 17.1
2006-06-07 04:56:29 51°18.173 2°40.972 314.9 13.3 305 15.2
2006-06-07 04:56:35 51°18.186 2°40.944 315 13.2 305 16.2
2006-06-07 04:56:39 51°18.195 2°40.925 315.1 13.2 305 17.1
2006-06-07 04:56:45 51°18.208 2°40.896 315.3 13.1 307 16.6
2006-06-07 04:56:49 51°18.216 2°40.878 315.6 13.2 306 14.3
2006-06-07 04:56:53 51°18.225 2°40.858 315.2 13.2 305 15
2006-06-07 04:56:59 51°18.238 2°40.83 315.2 13.2 306 11.6
2006-06-07 04:57:04 51°18.248 2°40.806 315 13.2 305 14.4
2006-06-07 04:57:09 51°18.259 2°40.782 314.8 13.3 305 15.4
2006-06-07 04:57:14 51°18.27 2°40.758 314.4 13.3 305 16.8
2006-06-07 04:57:18 51°18.278 2°40.739 314.2 13.4 305 17.7
2006-06-07 04:57:24 51°18.291 2°40.71 314.2 13.3 305 19.2
2006-06-07 04:57:29 51°18.302 2°40.686 314.3 13.3 306 19.4
2006-06-07 04:57:34 51°18.313 2°40.662 314.7 13.3 306 17.1
2006-06-07 04:57:40 51°18.326 2°40.633 314.7 13.4 306 15.4
2006-06-07 04:57:44 51°18.334 2°40.614 314.2 13.3 305 15.8
2006-06-07 04:57:49 51°18.345 2°40.59 314.2 13.3 305 16.6
2006-06-07 04:57:55 51°18.358 2°40.561 314.2 13.4 305 17.3
2006-06-07 04:57:58 51°18.364 2°40.547 314.2 13.3 306 17.6
2006-06-07 04:58:03 51°18.375 2°40.523 314.6 13.3 306 16.2
2006-06-07 04:58:09 51°18.388 2°40.494 314.7 13.2 306 14.6
2006-06-07 04:58:14 51°18.399 2°40.471 315.1 13.3 306 15.2
2006-06-07 04:58:19 51°18.41 2°40.448 315 13.3 307 15.8
2006-06-07 04:58:25 51°18.423 2°40.419 315.1 13.3 307 15.9
2006-06-07 04:58:28 51°18.43 2°40.405 315.3 13.3 307 15.7
2006-06-07 04:58:35 51°18.446 2°40.372 315.4 13.3 307 14.9
2006-06-07 04:58:39 51°18.455 2°40.354 315 13.2 307 12.6
2006-06-07 04:58:44 51°18.465 2°40.33 314.9 13.1 307 9.5
2006-06-07 04:58:50 51°18.478 2°40.302 314.8 13 306 13.7
2006-06-07 04:58:52 51°18.482 2°40.292 314.2 13.2 306 16.4
2006-06-07 04:58:59 51°18.498 2°40.259 314.5 13.3 306 19.2
2006-06-07 04:59:04 51°18.509 2°40.235 314.4 13.5 307 20.7
2006-06-07 04:59:09 51°18.52 2°40.211 314.3 13.5 307 21.8
2006-06-07 04:59:13 51°18.529 2°40.193 314.4 13.4 307 23
2006-06-07 04:59:19 51°18.542 2°40.164 314.4 13.4 307 23.4
2006-06-07 04:59:24 51°18.553 2°40.14 314.3 13.4 307 23.5
2006-06-07 04:59:29 51°18.564 2°40.116 314.1 13.4 306 23.1
2006-06-07 04:59:35 51°18.577 2°40.087 314.2 13.4 306 23.5
2006-06-07 04:59:38 51°18.584 2°40.073 314.1 13.4 305 24.1
2006-06-07 04:59:44 51°18.597 2°40.043 313.7 13.5 305 24.4
2006-06-07 04:59:49 51°18.607 2°40.019 313.2 13.4 305 23.7
2006-06-07 04:59:54 51°18.618 2°39.995 313.1 13.4 305 24.3
2006-06-07 05:00:00 51°18.631 2°39.966 313.3 13.4 306 24.4
2006-06-07 05:00:05 51°18.642 2°39.942 313.8 13.4 306 24.5
2006-06-07 05:00:08 51°18.649 2°39.928 313.9 13.4 307 24.4
2006-06-07 05:00:15 51°18.665 2°39.895 314.5 13.3 307 24
2006-06-07 05:00:19 51°18.674 2°39.876 314.7 13.4 307 24.1
2006-06-07 05:00:24 51°18.685 2°39.852 314.6 13.4 307 24.2
2006-06-07 05:00:29 51°18.696 2°39.828 314.6 13.4 307 23.6
2006-06-07 05:00:35 51°18.709 2°39.8 314.2 13.4 306 23.7
2006-06-07 05:00:40 51°18.72 2°39.776 314.2 13.3 307 23.6
2006-06-07 05:00:44 51°18.729 2°39.758 314.5 13.3 307 23.7
2006-06-07 05:00:48 51°18.738 2°39.739 314.6 13.4 307 24
2006-06-07 05:00:55 51°18.753 2°39.706 314.8 13.3 307 23.9
2006-06-07 05:00:59 51°18.762 2°39.687 314.9 13.3 307 23.9
2006-06-07 05:01:04 51°18.774 2°39.664 314.7 13.3 307 24
2006-06-07 05:01:09 51°18.784 2°39.64 314.5 13.2 307 24.1
2006-06-07 05:01:15 51°18.798 2°39.612 314.4 13.3 307 24.1
2006-06-07 05:01:20 51°18.809 2°39.589 314.2 13.3 307 24.2
2006-06-07 05:01:24 51°18.818 2°39.57 314.2 13.3 307 24.1
2006-06-07 05:01:29 51°18.829 2°39.546 314.2 13.3 306 24.1
2006-06-07 05:01:34 51°18.84 2°39.522 314 13.4 307 24.3
2006-06-07 05:01:39 51°18.851 2°39.499 314.1 13.3 307 24.2
2006-06-07 05:01:44 51°18.862 2°39.475 314 13.3 307 24.2
2006-06-07 05:01:49 51°18.873 2°39.451 313.8 13.3 307 24.3
2006-06-07 05:01:53 51°18.881 2°39.432 313.3 13.3 306 24.5
2006-06-07 05:01:59 51°18.894 2°39.403 313.3 13.3 306 24.7
2006-06-07 05:02:05 51°18.907 2°39.374 313.1 13.3 306 24.8
2006-06-07 05:02:09 51°18.916 2°39.356 313.1 13.3 306 25.1
2006-06-07 05:02:13 51°18.925 2°39.337 313.7 13.3 307 25.2
2006-06-07 05:02:19 51°18.938 2°39.308 314 13.3 307 25.4
2006-06-07 05:02:24 51°18.95 2°39.285 314.3 13.4 307 25.6
2006-06-07 05:02:29 51°18.961 2°39.261 314.6 13.4 307 25.8
2006-06-07 05:02:34 51°18.972 2°39.238 314.6 13.4 307 25.9
2006-06-07 05:02:38 51°18.981 2°39.219 314.5 13.4 307 26.2
2006-06-07 05:02:44 51°18.994 2°39.19 314.1 13.4 307 26.3
2006-06-07 05:02:49 51°19.006 2°39.167 314.4 13.4 308 26.5
2006-06-07 05:02:55 51°19.019 2°39.138 314.5 13.4 307 26.8
2006-06-07 05:03:00 51°19.03 2°39.114 314.5 13.4 307 26.8
2006-06-07 05:03:04 51°19.039 2°39.096 314.4 13.3 307 26.8
2006-06-07 05:03:09 51°19.05 2°39.072 314 13.3 307 27
2006-06-07 05:03:15 51°19.063 2°39.043 313.6 13.3 307 27.1
2006-06-07 05:03:19 51°19.072 2°39.024 313.7 13.3 307 27.4
2006-06-07 05:03:25 51°19.085 2°38.996 313.7 13.3 306 27.4
2006-06-07 05:03:29 51°19.094 2°38.977 313.9 13.3 306 27.5
2006-06-07 05:03:33 51°19.102 2°38.958 313.8 13.2 305 27.5
2006-06-07 05:03:39 51°19.115 2°38.929 313.8 13.3 305 27.8
2006-06-07 05:03:44 51°19.126 2°38.905 313.9 13.3 305 27.7
2006-06-07 05:03:49 51°19.136 2°38.881 313.8 13.2 305 27.5
2006-06-07 05:03:55 51°19.149 2°38.853 313.7 13.2 305 27.7
2006-06-07 05:03:59 51°19.157 2°38.833 313.8 13.2 305 27.4
2006-06-07 05:04:05 51°19.169 2°38.805 313.6 13.2 305 27.1
2006-06-07 05:04:09 51°19.177 2°38.785 313.3 13.2 304 27.3
2006-06-07 05:04:14 51°19.188 2°38.761 313.5 13.2 304 27.6
2006-06-07 05:04:20 51°19.2 2°38.733 313.9 13.2 305 27.6
2006-06-07 05:04:25 51°19.211 2°38.709 314.5 13.1 306 27.4
2006-06-07 05:04:28 51°19.217 2°38.695 314.7 13.1 306 27
2006-06-07 05:04:35 51°19.232 2°38.662 315 13.1 306 27.4
2006-06-07 05:04:39 51°19.241 2°38.643 315.1 13.1 306 26.8
2006-06-07 05:04:44 51°19.251 2°38.62 315.2 13.1 306 26.6
2006-06-07 05:04:49 51°19.262 2°38.597 315.3 13.1 306 26.8
2006-06-07 05:04:55 51°19.274 2°38.569 315.3 13 306 26.5
2006-06-07 05:04:59 51°19.283 2°38.55 315 13.1 306 26.1
2006-06-07 05:05:05 51°19.295 2°38.521 314.4 13.1 305 25.5
2006-06-07 05:05:08 51°19.301 2°38.507 314.1 13 305 25.5
2006-06-07 05:05:15 51°19.316 2°38.473 313.6 13.1 304 25.4
2006-06-07 05:05:19 51°19.324 2°38.454 313.5 13.1 305 25.3
2006-06-07 05:05:24 51°19.335 2°38.43 313.5 13.1 305 24.8
2006-06-07 05:05:29 51°19.345 2°38.407 314 13 305 24.6
2006-06-07 05:05:35 51°19.358 2°38.379 314.5 13.1 306 24.5
2006-06-07 05:05:40 51°19.368 2°38.355 314.9 13 306 24.3
2006-06-07 05:05:44 51°19.377 2°38.337 315.1 13 306 24.1
2006-06-07 05:05:48 51°19.385 2°38.318 315.2 13 306 23.6
2006-06-07 05:05:55 51°19.4 2°38.286 314.9 13 306 23.4
2006-06-07 05:05:59 51°19.409 2°38.267 314.9 13 306 22.1
2006-06-07 05:06:04 51°19.419 2°38.243 314.8 13.1 305 21.5
2006-06-07 05:06:09 51°19.43 2°38.22 314.5 13 305 22.6
2006-06-07 05:06:15 51°19.442 2°38.192 314.2 13 305 22.6
2006-06-07 05:06:20 51°19.452 2°38.168 314 13.1 305 22.8
2006-06-07 05:06:24 51°19.461 2°38.149 313.8 13.1 304 22.1
2006-06-07 05:06:28 51°19.469 2°38.13 313.7 13.1 305 21
2006-06-07 05:06:35 51°19.483 2°38.097 313.4 13.1 304 21.6
2006-06-07 05:06:39 51°19.491 2°38.078 313.1 13.1 305 22.3
2006-06-07 05:06:44 51°19.502 2°38.054 313.1 13.1 305 22.2
2006-06-07 05:06:49 51°19.512 2°38.03 313.7 13.1 306 21.8
2006-06-07 05:06:55 51°19.525 2°38.003 314.5 13.1 306 21.3
2006-06-07 05:07:00 51°19.536 2°37.98 315.7 13.1 308 19.8
2006-06-07 05:07:05 51°19.548 2°37.957 316.4 13.1 308 20.4
2006-06-07 05:07:08 51°19.554 2°37.943 316.9 13 309 21
2006-06-07 05:07:15 51°19.57 2°37.912 317.2 13.1 309 21.8
2006-06-07 05:07:19 51°19.579 2°37.895 317.9 13 309 21.7
2006-06-07 05:07:24 51°19.59 2°37.872 318 13 310 20.7
2006-06-07 05:07:29 51°19.602 2°37.849 317.5 13 308 21.1
2006-06-07 05:07:35 51°19.615 2°37.823 317.4 13 309 21.7
2006-06-07 05:07:40 51°19.626 2°37.8 317.3 13.1 308 21.6
2006-06-07 05:07:44 51°19.635 2°37.782 317.1 13.1 309 21.1
2006-06-07 05:07:49 51°19.646 2°37.759 316.9 13.1 308 20.8
2006-06-07 05:07:55 51°19.659 2°37.731 316.3 13.1 308 19.3
2006-06-07 05:07:59 51°19.668 2°37.712 315.7 13.1 306 20.1
2006-06-07 05:08:05 51°19.681 2°37.684 314.9 13.1 306 21
2006-06-07 05:08:09 51°19.69 2°37.665 314.8 13.1 306 22
2006-06-07 05:08:13 51°19.699 2°37.647 314.8 13.2 307 21.9
2006-06-07 05:08:19 51°19.712 2°37.62 315.1 13.1 307 20.8
2006-06-07 05:08:24 51°19.723 2°37.596 315.6 13.1 307 21.1
2006-06-07 05:08:29 51°19.734 2°37.574 315.9 13.2 308 21
2006-06-07 05:08:34 51°19.745 2°37.552 316.4 13.1 308 20.9
2006-06-07 05:08:39 51°19.756 2°37.53 316.6 12.2 309 21.6
2006-06-07 05:08:45 51°19.768 2°37.506 317 11.8 308 21.1
2006-06-07 05:08:49 51°19.775 2°37.491 317 11.2 309 21.3
2006-06-07 05:08:55 51°19.786 2°37.468 317.5 11 308 21.9
2006-06-07 05:09:00 51°19.796 2°37.451 317.8 10.6 308 21.7
2006-06-07 05:09:05 51°19.805 2°37.433 318.2 10.4 309 22.1
2006-06-07 05:09:08 51°19.81 2°37.423 318.4 10.1 309 22.6
2006-06-07 05:09:15 51°19.822 2°37.398 318.6 10.1 309 22.2
2006-06-07 05:09:19 51°19.829 2°37.385 318.3 9.8 309 21.8
2006-06-07 05:09:24 51°19.837 2°37.368 318.1 9.5 308 21.9
2006-06-07 05:09:29 51°19.845 2°37.352 317.6 9.1 307 21.6
2006-06-07 05:09:35 51°19.853 2°37.334 317.3 8.8 307 20.7
2006-06-07 05:09:40 51°19.859 2°37.32 316.8 8.2 306 19.4
2006-06-07 05:09:45 51°19.865 2°37.306 316.3 7.8 305 20.1
2006-06-07 05:09:48 51°19.868 2°37.298 315.8 7.4 304 20.4
2006-06-07 05:09:55 51°19.876 2°37.279 315.4 7.2 304 21.5
2006-06-07 05:09:59 51°19.88 2°37.269 315 6.9 303 21.5
2006-06-07 05:10:04 51°19.885 2°37.256 314.8 6.7 302 21.7
2006-06-07 05:10:09 51°19.89 2°37.244 314.4 6.5 302 21.9
2006-06-07 05:10:15 51°19.895 2°37.23 314.2 6.4 301 22.1
2006-06-07 05:10:20 51°19.899 2°37.218 314.2 6.2 301 22.1
2006-06-07 05:10:24 51°19.903 2°37.209 314.2 6 301 22.1
2006-06-07 05:10:28 51°19.906 2°37.2 314.3 5.8 301 21.9
2006-06-07 05:10:35 51°19.912 2°37.185 314.6 5.8 301 21.5
2006-06-07 05:10:39 51°19.915 2°37.176 314.8 5.6 301 21.4
2006-06-07 05:10:44 51°19.919 2°37.166 315 5.6 301 21.4
2006-06-07 05:10:49 51°19.923 2°37.155 315.1 5.5 301 20.9
2006-06-07 05:10:53 51°19.926 2°37.147 315.7 5.4 300 20.5
2006-06-07 05:10:59 51°19.93 2°37.135 315.9 5.2 302 20.6
2006-06-07 05:11:04 51°19.934 2°37.126 316.4 5.2 302 20.2
2006-06-07 05:11:09 51°19.938 2°37.116 316.8 5 302 19.9
2006-06-07 05:11:13 51°19.94 2°37.11 317.4 4.7 302 20.8
2006-06-07 05:11:19 51°19.944 2°37.099 318.2 4.5 302 20.6
2006-06-07 05:11:25 51°19.948 2°37.09 318.6 4.3 302 20.9
2006-06-07 05:11:29 51°19.95 2°37.084 319.1 4 302 21
2006-06-07 05:11:34 51°19.953 2°37.077 320.1 3.7 302 21.4
2006-06-07 05:11:40 51°19.956 2°37.07 321.5 3.3 303 21.7
2006-06-07 05:11:45 51°19.958 2°37.064 322.9 3.2 301 21.5
2006-06-07 05:11:50 51°19.96 2°37.059 325.1 2.9 303 21.6
2006-06-07 05:11:52 51°19.961 2°37.057 327.5 2.6 302 21.8
2006-06-07 05:11:59 51°19.963 2°37.05 330.3 2.5 303 21.7
2006-06-07 05:12:05 51°19.965 2°37.045 334 2.3 306 21.4
2006-06-07 05:12:09 51°19.967 2°37.043 336.3 2.3 304 21.6
2006-06-07 05:12:13 51°19.968 2°37.04 338.2 2.1 307 21.8
2006-06-07 05:12:19 51°19.971 2°37.035 339.7 2.1 309 21.5
2006-06-07 05:12:24 51°19.972 2°37.032 341.1 2 307 21.6
2006-06-07 05:12:28 51°19.974 2°37.029 342.3 1.9 308 21.7
2006-06-07 05:12:35 51°19.976 2°37.025 343.2 1.8 306 21.7
2006-06-07 05:12:39 51°19.977 2°37.023 343.8 1.7 307 21.5
2006-06-07 05:12:44 51°19.978 2°37.02 344.4 1.7 306 21.3
2006-06-07 05:12:49 51°19.979 2°37.017 344.8 1.6 306 21.5
2006-06-07 05:12:55 51°19.981 2°37.013 345.2 1.6 308 21.7
2006-06-07 05:13:00 51°19.982 2°37.011 345.6 1.7 306 21.5
2006-06-07 05:13:04 51°19.983 2°37.008 346.1 1.5 306 21.3
2006-06-07 05:13:08 51°19.984 2°37.006 346.4 1.5 307 21.4
2006-06-07 05:13:15 51°19.985 2°37.003 346.9 1.3 302 21.5
2006-06-07 05:13:19 51°19.986 2°37.001 347.2 1.3 296 21.6
2006-06-07 05:13:24 51°19.986 2°36.998 348.1 1.2 298 21.7
2006-06-07 05:13:29 51°19.987 2°36.996 349.1 1.2 294 21.7
2006-06-07 05:13:35 51°19.988 2°36.993 349.9 1.2 297 21.6
2006-06-07 05:13:40 51°19.989 2°36.991 350.5 1.2 296 21.6
2006-06-07 05:13:45 51°19.989 2°36.989 351.3 1.1 296 21.6
2006-06-07 05:13:48 51°19.989 2°36.987 352.1 1.1 294 21.5
2006-06-07 05:13:55 51°19.99 2°36.984 352.7 1.1 298 21.3
2006-06-07 05:14:00 51°19.991 2°36.982 353.4 1.1 293 21.2
2006-06-07 05:14:04 51°19.991 2°36.98 353.9 1 293 21.2
2006-06-07 05:14:09 51°19.992 2°36.978 354.3 1 292 21.2
2006-06-07 05:14:15 51°19.992 2°36.976 354.9 1 294 21.4
2006-06-07 05:14:20 51°19.993 2°36.974 355.1 1 292 21.5
2006-06-07 05:14:24 51°19.993 2°36.973 355.6 0.9 291 21.5
2006-06-07 05:14:29 51°19.994 2°36.971 356.3 1 286 21.3
2006-06-07 05:14:34 51°19.994 2°36.969 356.9 0.9 291 21.2
2006-06-07 05:14:39 51°19.995 2°36.967 357.2 0.9 290 21.2
2006-06-07 05:14:44 51°19.995 2°36.965 358 0.9 291 21.3
2006-06-07 05:14:49 51°19.995 2°36.963 358.5 0.9 285 21.5
2006-06-07 05:14:55 51°19.996 2°36.961 359 0.8 285 21.7
2006-06-07 05:14:59 51°19.996 2°36.96 359.4 0.8 287 21.6
2006-06-07 05:15:05 51°19.996 2°36.958 -999 0.8 286 21.5
2006-06-07 05:15:09 51°19.996 2°36.956 0.5 0.8 283 21.3
2006-06-07 05:15:15 51°19.997 2°36.954 1.2 0.8 284 21.3
2006-06-07 05:15:19 51°19.997 2°36.953 1.8 0.9 279 21.3
2006-06-07 05:15:24 51°19.997 2°36.951 2.2 0.8 281 21.4
2006-06-07 05:15:29 51°19.997 2°36.949 2.3 0.8 280 21.4
2006-06-07 05:15:35 51°19.997 2°36.947 2.9 0.8 278 21.3
2006-06-07 05:15:40 51°19.997 2°36.945 3.3 0.8 277 21.2
2006-06-07 05:15:43 51°19.998 2°36.944 3.6 0.7 275 21.3
2006-06-07 05:15:49 51°19.998 2°36.942 4 0.7 274 21.4
2006-06-07 05:15:53 51°19.998 2°36.941 4.4 0.7 272 21.6
2006-06-07 05:15:59 51°19.998 2°36.939 4.8 0.8 271 21.5
2006-06-07 05:16:05 51°19.998 2°36.937 5 0.8 276 21.3
2006-06-07 05:16:09 51°19.998 2°36.936 5.6 0.7 273 21.2
2006-06-07 05:16:13 51°19.998 2°36.935 5.8 0.7 267 21.3
2006-06-07 05:16:19 51°19.998 2°36.933 6.2 0.8 269 21.6
2006-06-07 05:16:25 51°19.998 2°36.93 6.5 0.7 271 21.5
2006-06-07 05:16:29 51°19.998 2°36.929 6.8 0.7 267 21.3
2006-06-07 05:16:33 51°19.998 2°36.928 7.1 0.7 266 21.2
2006-06-07 05:16:39 51°19.998 2°36.926 7.3 0.7 262 21.3
2006-06-07 05:16:44 51°19.998 2°36.925 7.7 0.7 266 21.5
2006-06-07 05:16:49 51°19.998 2°36.923 7.9 0.7 263 21.6
2006-06-07 05:16:53 51°19.997 2°36.922 8.1 0.7 264 21.5
2006-06-07 05:16:59 51°19.997 2°36.92 8.5 0.7 266 21.3
2006-06-07 05:17:04 51°19.997 2°36.918 8.7 0.7 266 21.2
2006-06-07 05:17:09 51°19.997 2°36.917 8.9 0.7 259 21.3
2006-06-07 05:17:12 51°19.997 2°36.916 9.3 0.7 258 21.6
2006-06-07 05:17:19 51°19.997 2°36.913 9.6 0.7 262 21.5
2006-06-07 05:17:24 51°19.996 2°36.912 10 0.7 262 21.4
2006-06-07 05:17:29 51°19.996 2°36.91 10.3 0.7 256 21.2
2006-06-07 05:17:35 51°19.996 2°36.908 10.8 0.8 259 21.2
2006-06-07 05:17:39 51°19.996 2°36.908 11.1 0.4 237 21.5
2006-06-07 05:17:45 51°19.995 2°36.905 11.5 0.9 259 21.6
2006-06-07 05:17:49 51°19.995 2°36.905 11.6 0.6 249 21.5
2006-06-07 05:17:55 51°19.995 2°36.902 11.8 0.6 243 21.3
2006-06-07 05:18:00 51°19.995 2°36.901 12.2 0.7 255 21.2
2006-06-07 05:18:05 51°19.994 2°36.899 12.4 0.8 257 21.3
2006-06-07 05:18:08 51°19.994 2°36.899 12.6 0.6 249 21.6
2006-06-07 05:18:15 51°19.994 2°36.896 12.9 0.7 255 21.7
2006-06-07 05:18:19 51°19.994 2°36.896 13 0.6 246 21.5
2006-06-07 05:18:24 51°19.993 2°36.894 13.1 0.8 255 21.3
2006-06-07 05:18:28 51°19.993 2°36.893 13.3 0.7 252 21.2
2006-06-07 05:18:35 51°19.993 2°36.891 13.7 0.7 254 21.3
2006-06-07 05:18:39 51°19.992 2°36.89 13.8 0.6 247 21.6
2006-06-07 05:18:45 51°19.992 2°36.888 14 0.7 252 21.7
2006-06-07 05:18:49 51°19.992 2°36.887 14.2 0.7 250 21.6
2006-06-07 05:18:55 51°19.991 2°36.885 14.4 0.7 249 21.3
2006-06-07 05:18:59 51°19.991 2°36.884 14.5 0.7 248 21.3
2006-06-07 05:19:04 51°19.99 2°36.882 14.6 0.7 251 21.4
2006-06-07 05:19:10 51°19.99 2°36.881 14.7 0.8 251 21.7
2006-06-07 05:19:12 51°19.99 2°36.88 15 0.8 253 21.6
2006-06-07 05:19:19 51°19.989 2°36.878 15.2 0.7 249 21.4
2006-06-07 05:19:24 51°19.989 2°36.877 15.3 0.8 244 21.2
2006-06-07 05:19:28 51°19.989 2°36.876 15.6 0.7 249 21.4
2006-06-07 05:19:35 51°19.988 2°36.874 15.8 0.8 245 21.5
2006-06-07 05:19:39 51°19.988 2°36.873 16.1 0.8 245 21.6
2006-06-07 05:19:44 51°19.987 2°36.871 16.3 0.7 248 21.3
2006-06-07 05:19:49 51°19.987 2°36.87 16.6 0.7 249 21.3
2006-06-07 05:19:55 51°19.986 2°36.868 16.9 0.7 240 21.4
2006-06-07 05:19:59 51°19.986 2°36.867 17.1 0.7 245 21.7
2006-06-07 05:20:05 51°19.985 2°36.866 17.4 0.7 241 21.5
2006-06-07 05:20:09 51°19.985 2°36.864 17.6 0.7 243 21.4
2006-06-07 05:20:12 51°19.985 2°36.864 17.8 0.7 240 21.3
2006-06-07 05:20:19 51°19.984 2°36.862 18.1 0.8 240 21.6
2006-06-07 05:20:24 51°19.984 2°36.86 18.3 0.8 243 21.8
2006-06-07 05:20:28 51°19.983 2°36.859 18.5 0.8 238 21.6
2006-06-07 05:20:33 51°19.983 2°36.858 18.8 0.8 238 21.4
2006-06-07 05:20:40 51°19.982 2°36.855 18.8 0.8 241 21.5
2006-06-07 05:20:45 51°19.982 2°36.854 19.1 0.7 240 21.8
2006-06-07 05:20:49 51°19.981 2°36.853 19.2 0.8 239 21.6
2006-06-07 05:20:55 51°19.98 2°36.852 19.5 0.8 238 21.7
2006-06-07 05:20:59 51°19.98 2°36.85 19.5 0.8 241 21.5
2006-06-07 05:21:05 51°19.979 2°36.849 19.8 0.7 234 21.3
2006-06-07 05:21:09 51°19.979 2°36.848 20 0.8 239 21.4
2006-06-07 05:21:12 51°19.979 2°36.847 20 0.8 240 21.7
2006-06-07 05:21:19 51°19.978 2°36.845 20.3 0.7 235 21.7
2006-06-07 05:21:25 51°19.977 2°36.843 20.3 0.8 240 21.5
2006-06-07 05:21:28 51°19.977 2°36.842 20.4 0.7 235 21.4
2006-06-07 05:21:35 51°19.976 2°36.84 20.7 0.7 239 21.1
2006-06-07 05:21:40 51°19.976 2°36.839 20.8 0.7 235 21.1
2006-06-07 05:21:45 51°19.976 2°36.838 21 0.6 249 20.9
2006-06-07 05:21:49 51°19.976 2°36.837 21.5 0.5 249 20.8
2006-06-07 05:21:55 51°19.976 2°36.836 22.4 0.5 272 20.7
2006-06-07 05:21:59 51°19.976 2°36.836 23.2 0.4 298 20.7
2006-06-07 05:22:04 51°19.976 2°36.835 25.1 0.4 316 20.7
2006-06-07 05:22:09 51°19.977 2°36.835 26.8 0.4 344 20.8
2006-06-07 05:22:15 51°19.978 2°36.835 29.2 0.5 355 20.8
2006-06-07 05:22:19 51°19.979 2°36.835 31.7 0.6 4 21
2006-06-07 05:22:24 51°19.98 2°36.835 33.5 0.7 13 21.2
2006-06-07 05:22:29 51°19.981 2°36.836 36.6 0.7 21 21.3
2006-06-07 05:22:35 51°19.982 2°36.837 39.3 0.8 29 21.4
2006-06-07 05:22:39 51°19.983 2°36.838 42.2 0.9 38 21.5
2006-06-07 05:22:45 51°19.984 2°36.84 44.8 0.9 42 21.5
2006-06-07 05:22:49 51°19.985 2°36.842 48.3 1.1 52 21.2
2006-06-07 05:22:55 51°19.986 2°36.844 52.5 1.1 53 21.4
2006-06-07 05:23:00 51°19.986 2°36.846 56.6 1.2 64 21.8
2006-06-07 05:23:05 51°19.987 2°36.849 60.9 1.4 74 21.8
2006-06-07 05:23:08 51°19.987 2°36.851 65.1 1.4 81 21.5
2006-06-07 05:23:15 51°19.987 2°36.856 69.2 1.3 79 21.5
2006-06-07 05:23:19 51°19.987 2°36.858 73.5 1.5 91 21.6
2006-06-07 05:23:25 51°19.987 2°36.863 77.9 1.6 91 21.4
2006-06-07 05:23:29 51°19.987 2°36.866 83.4 1.8 98 21.3
2006-06-07 05:23:35 51°19.986 2°36.871 87.8 1.9 102 21.6
2006-06-07 05:23:40 51°19.985 2°36.876 90.2 2 102 21.6
2006-06-07 05:23:45 51°19.984 2°36.88 92.2 2.2 106 21.3
2006-06-07 05:23:48 51°19.984 2°36.883 93.7 2.3 107 21.7
2006-06-07 05:23:55 51°19.982 2°36.89 94.9 2.4 107 21.5
2006-06-07 05:23:59 51°19.982 2°36.895 95.8 2.5 107 21.3
2006-06-07 05:24:04 51°19.98 2°36.9 96.4 2.6 107 21.5
2006-06-07 05:24:09 51°19.979 2°36.906 96.5 2.7 108 21.2